createdAt,value
2017-05-30T00:00:34.064Z,1000.62
2017-05-30T00:02:58.658Z,1000.69
2017-05-30T00:05:23.243Z,1000.74
2017-05-30T00:07:47.830Z,1000.75
2017-05-30T00:10:03.960Z,1000.82
2017-05-30T00:12:28.647Z,1000.79
2017-05-30T00:14:36.371Z,1000.84
2017-05-30T00:17:00.915Z,1000.83
2017-05-30T00:19:16.999Z,1000.82
2017-05-30T00:21:41.603Z,1000.82
2017-05-30T00:23:57.726Z,1000.79
2017-05-30T00:26:22.284Z,1000.77
2017-05-30T00:28:46.876Z,1000.76
2017-05-30T00:31:11.462Z,1000.78
2017-05-30T00:33:12.950Z,1000.73
2017-05-30T00:35:29.058Z,1000.72
2017-05-30T00:37:53.606Z,1000.76
2017-05-30T00:40:18.187Z,1000.65
2017-05-30T00:42:42.789Z,1000.65
2017-05-30T00:45:07.293Z,1000.66
2017-05-30T00:47:08.783Z,1000.62
2017-05-30T00:49:33.329Z,1000.6
2017-05-30T00:51:57.922Z,1000.64
2017-05-30T00:54:22.518Z,1000.61
2017-05-30T00:56:47.117Z,1000.62
2017-05-30T00:59:11.703Z,1000.64
2017-05-30T01:01:36.305Z,1000.6
2017-05-30T01:04:00.883Z,1000.58
2017-05-30T01:06:25.496Z,1000.64
2017-05-30T01:08:50.100Z,1000.63
2017-05-30T01:11:14.686Z,1000.61
2017-05-30T01:13:39.284Z,1000.6
2017-05-30T01:16:03.879Z,1000.64
2017-05-30T01:18:28.471Z,1000.62
2017-05-30T01:20:38.564Z,1000.6
2017-05-30T01:23:03.220Z,1000.55
2017-05-30T01:25:27.812Z,1000.52
2017-05-30T01:27:52.310Z,1000.49
2017-05-30T01:30:08.392Z,1000.49
2017-05-30T01:32:24.500Z,1000.56
2017-05-30T01:34:49.087Z,1000.53
2017-05-30T01:37:13.680Z,1000.56
2017-05-30T01:39:23.737Z,1000.57
2017-05-30T01:41:33.770Z,1000.59
2017-05-30T01:43:58.374Z,1000.6
2017-05-30T01:46:22.976Z,1000.64
2017-05-30T01:48:47.574Z,1000.65
2017-05-30T01:50:49.069Z,1000.66
2017-05-30T01:53:05.212Z,1000.64
2017-05-30T01:55:29.811Z,1000.68
2017-05-30T01:57:45.944Z,1000.66
2017-05-30T02:00:10.496Z,1000.67
2017-05-30T02:02:26.593Z,1000.67
2017-05-30T02:04:51.200Z,1000.68
2017-05-30T02:07:15.786Z,1000.67
2017-05-30T02:09:31.871Z,1000.66
2017-05-30T02:11:56.468Z,1000.69
2017-05-30T02:14:21.069Z,1000.67
2017-05-30T02:16:45.660Z,1000.71
2017-05-30T02:19:10.252Z,1000.72
2017-05-30T02:21:34.842Z,1000.79
2017-05-30T02:23:59.439Z,1000.81
2017-05-30T02:26:24.040Z,1000.79
2017-05-30T02:28:48.629Z,1000.81
2017-05-30T02:31:13.218Z,1000.76
2017-05-30T02:33:29.312Z,1000.76
2017-05-30T02:35:53.905Z,1000.76
2017-05-30T02:38:10.044Z,1000.76
2017-05-30T02:40:34.493Z,1000.74
2017-05-30T02:42:58.981Z,1000.7
2017-05-30T02:45:23.473Z,1000.67
2017-05-30T02:47:47.948Z,1000.69
2017-05-30T02:50:12.463Z,1000.64
2017-05-30T02:52:37.051Z,1000.67
2017-05-30T02:54:47.144Z,1000.63
2017-05-30T02:56:49.089Z,1000.67
2017-05-30T02:59:13.664Z,1000.66
2017-05-30T03:01:38.150Z,1000.64
2017-05-30T03:03:54.239Z,1000.56
2017-05-30T03:06:10.343Z,1000.62
2017-05-30T03:08:34.832Z,1000.63
2017-05-30T03:10:27.837Z,1000.61
2017-05-30T03:12:52.380Z,1000.59
2017-05-30T03:15:16.868Z,1000.6
2017-05-30T03:17:41.368Z,1000.57
2017-05-30T03:20:05.835Z,1000.58
2017-05-30T03:22:21.829Z,1000.57
2017-05-30T03:24:46.318Z,1000.6
2017-05-30T03:27:02.365Z,1000.57
2017-05-30T03:29:26.816Z,1000.53
2017-05-30T03:31:51.310Z,1000.55
2017-05-30T03:34:07.346Z,1000.47
2017-05-30T03:36:17.494Z,1000.52
2017-05-30T03:38:42.051Z,1000.52
2017-05-30T03:41:06.546Z,1000.5
2017-05-30T03:43:22.575Z,1000.55
2017-05-30T03:45:47.129Z,1000.56
2017-05-30T03:48:03.161Z,1000.6
2017-05-30T03:50:27.723Z,1000.55
2017-05-30T03:52:43.850Z,1000.59
2017-05-30T03:55:08.414Z,1000.6
2017-05-30T03:57:33.006Z,1000.59
2017-05-30T03:59:57.608Z,1000.6
2017-05-30T04:02:13.700Z,1000.62
2017-05-30T04:04:38.292Z,1000.59
2017-05-30T04:07:02.774Z,1000.63
2017-05-30T04:09:12.835Z,1000.67
2017-05-30T04:11:37.425Z,1000.63
2017-05-30T04:14:02.020Z,1000.64
2017-05-30T04:16:03.522Z,1000.6
2017-05-30T04:18:19.667Z,1000.64
2017-05-30T04:20:44.265Z,1000.65
2017-05-30T04:23:08.856Z,1000.62
2017-05-30T04:25:24.994Z,1000.66
2017-05-30T04:27:49.547Z,1000.67
2017-05-30T04:30:14.148Z,1000.65
2017-05-30T04:32:38.744Z,1000.67
2017-05-30T04:35:03.323Z,1000.68
2017-05-30T04:37:27.921Z,1000.67
2017-05-30T04:39:52.425Z,1000.69
2017-05-30T04:42:17.005Z,1000.7
2017-05-30T04:44:41.598Z,1000.68
2017-05-30T04:46:43.598Z,1000.69
2017-05-30T04:49:08.153Z,1000.67
2017-05-30T04:51:32.746Z,1000.7
2017-05-30T04:53:57.344Z,1000.67
2017-05-30T04:56:21.837Z,1000.66
2017-05-30T04:58:46.441Z,1000.67
2017-05-30T05:01:11.024Z,1000.66
2017-05-30T05:03:27.121Z,1000.62
2017-05-30T05:05:34.755Z,1000.63
2017-05-30T05:07:59.322Z,1000.65
2017-05-30T05:10:15.436Z,1000.67
2017-05-30T05:12:39.890Z,1000.66
2017-05-30T05:15:04.383Z,1000.64
2017-05-30T05:17:05.976Z,1000.63
2017-05-30T05:19:30.532Z,1000.59
2017-05-30T05:21:46.559Z,1000.59
2017-05-30T05:24:11.119Z,1000.63
2017-05-30T05:26:35.617Z,1000.62
2017-05-30T05:29:00.091Z,1000.63
2017-05-30T05:31:24.600Z,1000.61
2017-05-30T05:33:40.702Z,1000.64
2017-05-30T05:35:56.671Z,1000.67
2017-05-30T05:38:21.170Z,1000.67
2017-05-30T05:40:37.258Z,1000.68
2017-05-30T05:42:53.270Z,1000.65
2017-05-30T05:45:00.854Z,1000.7
2017-05-30T05:47:25.338Z,1000.7
2017-05-30T05:49:41.439Z,1000.7
2017-05-30T05:52:05.932Z,1000.74
2017-05-30T05:54:21.947Z,1000.72
2017-05-30T05:56:46.433Z,1000.79
2017-05-30T05:59:02.514Z,1000.78
2017-05-30T06:01:27.010Z,1000.83
2017-05-30T06:03:51.504Z,1000.86
2017-05-30T06:06:07.587Z,1000.84
2017-05-30T06:08:23.613Z,1000.85
2017-05-30T06:10:48.171Z,1000.88
2017-05-30T06:13:04.267Z,1000.85
2017-05-30T06:15:29.786Z,1000.87
2017-05-30T06:17:54.278Z,1000.94
2017-05-30T06:20:18.765Z,1000.94
2017-05-30T06:22:43.260Z,1000.94
2017-05-30T06:25:07.858Z,1000.97
2017-05-30T06:27:32.282Z,1000.94
2017-05-30T06:29:56.838Z,1001
2017-05-30T06:32:21.320Z,1001.01
2017-05-30T06:34:45.809Z,1001.05
2017-05-30T06:37:10.276Z,1001.05
2017-05-30T06:39:34.749Z,1001.06
2017-05-30T06:41:59.232Z,1001.1
2017-05-30T06:44:00.721Z,1001.13
2017-05-30T06:46:02.285Z,1001.12
2017-05-30T06:48:26.782Z,1001.16
2017-05-30T06:50:51.217Z,1001.15
2017-05-30T06:52:52.815Z,1001.21
2017-05-30T06:55:08.861Z,1001.2
2017-05-30T06:57:24.877Z,1001.21
2017-05-30T06:59:49.347Z,1001.26
2017-05-30T07:02:13.799Z,1001.31
2017-05-30T07:04:38.255Z,1001.32
2017-05-30T07:07:02.705Z,1001.36
2017-05-30T07:09:27.104Z,1001.33
2017-05-30T07:11:43.089Z,1001.35
2017-05-30T07:14:07.548Z,1001.41
2017-05-30T07:16:32.010Z,1001.39
2017-05-30T07:18:56.480Z,1001.36
2017-05-30T07:21:21.980Z,1001.46
2017-05-30T07:23:38.008Z,1001.48
2017-05-30T07:26:02.508Z,1001.5
2017-05-30T07:28:12.575Z,1001.49
2017-05-30T07:30:37.128Z,1001.55
2017-05-30T07:33:01.688Z,1001.57
2017-05-30T07:35:17.810Z,1001.6
2017-05-30T07:37:42.370Z,1001.61
2017-05-30T07:39:58.482Z,1001.63
2017-05-30T07:42:14.635Z,1001.61
2017-05-30T07:44:39.268Z,1001.59
2017-05-30T07:46:41.323Z,1001.64
2017-05-30T07:49:06.014Z,1001.61
2017-05-30T07:51:30.677Z,1001.6
2017-05-30T07:53:46.885Z,1001.62
2017-05-30T07:56:11.558Z,1001.63
2017-05-30T07:58:36.262Z,1001.66
2017-05-30T08:01:00.955Z,1001.65
2017-05-30T08:03:25.635Z,1001.62
2017-05-30T08:05:50.344Z,1001.64
2017-05-30T08:08:15.040Z,1001.68
2017-05-30T08:10:39.753Z,1001.68
2017-05-30T08:13:04.475Z,1001.73
2017-05-30T08:15:29.209Z,1001.74
2017-05-30T08:17:45.468Z,1001.74
2017-05-30T08:20:10.166Z,1001.82
2017-05-30T08:22:34.969Z,1001.79
2017-05-30T08:24:59.768Z,1001.79
2017-05-30T08:27:24.585Z,1001.78
2017-05-30T08:29:40.932Z,1001.75
2017-05-30T08:31:57.288Z,1001.73
2017-05-30T08:34:22.104Z,1001.79
2017-05-30T08:36:46.919Z,1001.76
2017-05-30T08:39:11.763Z,1001.79
2017-05-30T08:41:36.604Z,1001.76
2017-05-30T08:43:52.981Z,1001.78
2017-05-30T08:46:17.817Z,1001.77
2017-05-30T08:48:42.662Z,1001.81
2017-05-30T08:51:07.530Z,1001.78
2017-05-30T08:53:32.468Z,1001.79
2017-05-30T08:55:34.093Z,1001.87
2017-05-30T08:57:59.101Z,1001.89
2017-05-30T09:00:15.618Z,1001.9
2017-05-30T09:02:40.627Z,1001.87
2017-05-30T09:05:05.632Z,1001.91
2017-05-30T09:07:30.687Z,1001.92
2017-05-30T09:09:47.240Z,1001.93
2017-05-30T09:12:12.258Z,1001.99
2017-05-30T09:14:37.308Z,1001.99
2017-05-30T09:17:02.364Z,1001.98
2017-05-30T09:19:27.429Z,1002.02
2017-05-30T09:21:43.963Z,1001.99
2017-05-30T09:24:09.043Z,1001.96
2017-05-30T09:26:34.119Z,1001.92
2017-05-30T09:28:59.151Z,1001.91
2017-05-30T09:31:15.701Z,1001.91
2017-05-30T09:33:32.290Z,1001.93
2017-05-30T09:35:57.385Z,1001.89
2017-05-30T09:38:07.623Z,1001.94
2017-05-30T09:40:24.248Z,1002.01
2017-05-30T09:42:49.405Z,1001.91
2017-05-30T09:44:42.548Z,1001.91
2017-05-30T09:46:59.279Z,1001.86
2017-05-30T09:48:53.690Z,1001.85
2017-05-30T09:51:18.996Z,1001.98
2017-05-30T09:53:44.297Z,1001.96
2017-05-30T09:56:09.636Z,1001.93
2017-05-30T09:58:26.492Z,1001.93
2017-05-30T10:00:51.878Z,1001.74
2017-05-30T10:03:17.221Z,1001.78
2017-05-30T10:05:42.612Z,1001.81
2017-05-30T10:07:52.944Z,1001.82
2017-05-30T10:10:18.294Z,1001.76
2017-05-30T10:12:43.641Z,1001.73
2017-05-30T10:15:08.987Z,1001.7
2017-05-30T10:17:34.314Z,1001.69
2017-05-30T10:19:59.633Z,1001.63
2017-05-30T10:22:24.960Z,1001.6
2017-05-30T10:24:50.261Z,1001.6
2017-05-30T10:27:07.054Z,1001.6
2017-05-30T10:29:32.346Z,1001.64
2017-05-30T10:31:49.119Z,1001.68
2017-05-30T10:34:14.394Z,1001.64
2017-05-30T10:36:31.124Z,1001.64
2017-05-30T10:38:56.428Z,1001.68
2017-05-30T10:41:21.735Z,1001.7
2017-05-30T10:43:47.012Z,1001.64
2017-05-30T10:46:12.299Z,1001.75
2017-05-30T10:48:29.076Z,1001.73
2017-05-30T10:50:30.763Z,1001.78
2017-05-30T10:52:56.099Z,1001.77
2017-05-30T10:55:21.389Z,1001.77
2017-05-30T10:57:46.669Z,1001.82
2017-05-30T11:00:11.998Z,1001.72
2017-05-30T11:02:22.810Z,1001.79
2017-05-30T11:04:48.156Z,1001.69
2017-05-30T11:07:13.446Z,1001.76
2017-05-30T11:09:38.738Z,1001.79
2017-05-30T11:12:04.052Z,1001.69
2017-05-30T11:14:29.360Z,1001.74
2017-05-30T11:16:54.642Z,1001.7
2017-05-30T11:19:19.907Z,1001.7
2017-05-30T11:21:45.170Z,1001.67
2017-05-30T11:24:10.429Z,1001.63
2017-05-30T11:26:27.218Z,1001.59
2017-05-30T11:28:52.500Z,1001.57
2017-05-30T11:31:17.787Z,1001.56
2017-05-30T11:33:43.080Z,1001.53
2017-05-30T11:35:59.915Z,1001.5
2017-05-30T11:38:25.272Z,1001.49
2017-05-30T11:40:50.641Z,1001.41
2017-05-30T11:43:16.004Z,1001.39
2017-05-30T11:45:26.245Z,1001.41
2017-05-30T11:47:51.672Z,1001.32
2017-05-30T11:49:53.362Z,1001.35
2017-05-30T11:52:10.242Z,1001.37
2017-05-30T11:54:35.621Z,1001.4
2017-05-30T11:57:01.005Z,1001.32
2017-05-30T11:59:26.425Z,1001.36
2017-05-30T12:01:51.813Z,1001.34
2017-05-30T12:04:17.169Z,1001.34
2017-05-30T12:06:42.562Z,1001.42
2017-05-30T12:08:59.455Z,1001.4
2017-05-30T12:11:24.786Z,1001.4
2017-05-30T12:13:50.101Z,1001.43
2017-05-30T12:15:49.879Z,1001.36
2017-05-30T12:18:15.159Z,1001.4
2017-05-30T12:20:40.356Z,1001.36
2017-05-30T12:22:57.061Z,1001.34
2017-05-30T12:25:22.252Z,1001.39
2017-05-30T12:27:47.467Z,1001.34
2017-05-30T12:30:12.668Z,1001.32
2017-05-30T12:32:29.359Z,1001.37
2017-05-30T12:34:54.479Z,1001.28
2017-05-30T12:37:19.626Z,1001.25
2017-05-30T12:39:21.300Z,1001.28
2017-05-30T12:41:38.015Z,1001.26
2017-05-30T12:43:54.731Z,1001.24
2017-05-30T12:46:19.901Z,1001.23
2017-05-30T12:48:21.573Z,1001.27
2017-05-30T12:50:46.838Z,1001.3
2017-05-30T12:53:12.047Z,1001.47
2017-05-30T12:55:37.300Z,1001.56
2017-05-30T12:58:02.560Z,1001.57
2017-05-30T13:00:27.800Z,1001.48
2017-05-30T13:02:44.503Z,1001.45
2017-05-30T13:04:46.176Z,1001.46
2017-05-30T13:07:11.416Z,1001.51
2017-05-30T13:09:36.574Z,1001.66
2017-05-30T13:12:01.769Z,1001.71
2017-05-30T13:14:26.933Z,1001.8
2017-05-30T13:16:51.993Z,1001.8
2017-05-30T13:18:53.645Z,1001.84
2017-05-30T13:21:18.787Z,1001.82
2017-05-30T13:23:43.884Z,1001.7
2017-05-30T13:26:08.904Z,1001.79
2017-05-30T13:28:33.901Z,1001.87
2017-05-30T13:30:41.907Z,1001.88
2017-05-30T13:33:06.909Z,1001.89
2017-05-30T13:35:31.914Z,1001.83
2017-05-30T13:37:56.888Z,1001.87
2017-05-30T13:40:04.903Z,1001.84
2017-05-30T13:42:29.811Z,1001.77
2017-05-30T13:44:54.729Z,1001.64
2017-05-30T13:47:19.601Z,1001.6
2017-05-30T13:49:44.401Z,1001.55
2017-05-30T13:51:45.988Z,1001.51
2017-05-30T13:54:10.832Z,1001.58
2017-05-30T13:56:35.603Z,1001.56
2017-05-30T13:59:00.401Z,1001.58
2017-05-30T14:01:25.187Z,1001.54
2017-05-30T14:03:41.472Z,1001.54
2017-05-30T14:06:06.247Z,1001.6
2017-05-30T14:08:30.976Z,1001.68
2017-05-30T14:10:55.656Z,1001.67
2017-05-30T14:13:20.402Z,1001.62
2017-05-30T14:15:45.142Z,1001.56
2017-05-30T14:18:09.902Z,1001.53
2017-05-30T14:20:34.649Z,1001.54
2017-05-30T14:22:59.392Z,1001.55
2017-05-30T14:25:15.650Z,1001.65
2017-05-30T14:27:40.403Z,1001.59
2017-05-30T14:30:05.145Z,1001.42
2017-05-30T14:32:07.182Z,1001.39
2017-05-30T14:34:31.944Z,1001.53
2017-05-30T14:36:56.648Z,1001.63
2017-05-30T14:39:12.916Z,1001.73
2017-05-30T14:41:37.660Z,1001.78
2017-05-30T14:44:02.376Z,1001.76
2017-05-30T14:46:27.054Z,1001.83
2017-05-30T14:48:51.777Z,1001.92
2017-05-30T14:51:01.907Z,1001.88
2017-05-30T14:53:26.626Z,1002.02
2017-05-30T14:55:51.339Z,1001.9
2017-05-30T14:58:16.054Z,1001.87
2017-05-30T15:00:40.753Z,1001.91
2017-05-30T15:03:05.435Z,1002.03
2017-05-30T15:05:30.101Z,1002.01
2017-05-30T15:07:54.785Z,1002
2017-05-30T15:10:11.031Z,1001.98
2017-05-30T15:12:35.742Z,1002.06
2017-05-30T15:15:00.418Z,1001.97
2017-05-30T15:17:25.068Z,1001.96
2017-05-30T15:19:41.244Z,1002.04
2017-05-30T15:21:42.785Z,1002.12
2017-05-30T15:23:58.990Z,1002.19
2017-05-30T15:26:23.616Z,1002.25
2017-05-30T15:28:48.250Z,1002.21
2017-05-30T15:31:12.836Z,1002.19
2017-05-30T15:33:37.457Z,1002.2
2017-05-30T15:36:02.098Z,1002.17
2017-05-30T15:38:26.703Z,1002.18
2017-05-30T15:40:42.870Z,1002.21
2017-05-30T15:43:07.499Z,1002.24
2017-05-30T15:45:23.648Z,1002.24
2017-05-30T15:47:48.216Z,1002.32
2017-05-30T15:50:04.346Z,1002.34
2017-05-30T15:52:28.940Z,1002.34
2017-05-30T15:54:53.484Z,1002.32
2017-05-30T15:57:09.599Z,1002.24
2017-05-30T15:59:34.158Z,1002.22
2017-05-30T16:01:50.287Z,1002.19
2017-05-30T16:04:06.378Z,1002.24
2017-05-30T16:06:30.922Z,1002.24
2017-05-30T16:08:55.500Z,1002.23
2017-05-30T16:11:20.053Z,1002.2
2017-05-30T16:13:44.650Z,1002.16
2017-05-30T16:16:09.215Z,1002.16
2017-05-30T16:18:33.772Z,1002.15
2017-05-30T16:20:58.370Z,1002.16
2017-05-30T16:23:23.010Z,1002.12
2017-05-30T16:25:47.649Z,1002.03
2017-05-30T16:28:12.281Z,1001.97
2017-05-30T16:30:22.370Z,1001.93
2017-05-30T16:32:42.747Z,1001.91
2017-05-30T16:34:44.385Z,1001.96
2017-05-30T16:37:09.092Z,1001.97
2017-05-30T16:39:33.781Z,1002.04
2017-05-30T16:41:58.484Z,1002.03
2017-05-30T16:44:23.135Z,1002.04
2017-05-30T16:46:47.779Z,1002.13
2017-05-30T16:49:03.975Z,1002.15
2017-05-30T16:51:28.689Z,1002.19
2017-05-30T16:53:44.929Z,1002.24
2017-05-30T16:56:01.203Z,1002.3
2017-05-30T16:58:25.931Z,1002.33
2017-05-30T17:00:50.696Z,1002.35
2017-05-30T17:03:15.371Z,1002.39
2017-05-30T17:05:40.116Z,1002.38
2017-05-30T17:07:50.250Z,1002.41
2017-05-30T17:09:51.898Z,1002.42
2017-05-30T17:12:16.723Z,1002.49
2017-05-30T17:14:41.507Z,1002.48
2017-05-30T17:17:06.281Z,1002.46
2017-05-30T17:19:31.017Z,1002.52
2017-05-30T17:21:47.208Z,1002.57
2017-05-30T17:24:03.475Z,1002.55
2017-05-30T17:26:28.221Z,1002.59
2017-05-30T17:28:52.982Z,1002.68
2017-05-30T17:31:17.746Z,1002.76
2017-05-30T17:33:34.011Z,1002.79
2017-05-30T17:35:58.738Z,1002.82
2017-05-30T17:38:23.426Z,1002.81
2017-05-30T17:40:48.104Z,1002.84
2017-05-30T17:43:12.802Z,1002.87
2017-05-30T17:45:29.057Z,1002.85
2017-05-30T17:49:30.371Z,1002.9
2017-05-30T17:51:55.092Z,1002.89
2017-05-30T17:54:19.805Z,1002.94
2017-05-30T17:56:44.438Z,1002.98
2017-05-30T17:59:09.103Z,1002.98
2017-05-30T18:01:33.801Z,1002.95
2017-05-30T18:03:58.529Z,1002.98
2017-05-30T18:06:14.674Z,1002.97
2017-05-30T18:08:39.277Z,1002.95
2017-05-30T18:11:03.889Z,1002.97
2017-05-30T18:13:28.542Z,1003.02
2017-05-30T18:15:53.127Z,1003.08
2017-05-30T18:18:17.741Z,1003.1
2017-05-30T18:20:42.309Z,1003.07
2017-05-30T18:22:43.853Z,1003.09
2017-05-30T18:25:08.494Z,1003.06
2017-05-30T18:27:33.063Z,1003.09
2017-05-30T18:29:57.654Z,1003.04
2017-05-30T18:32:22.233Z,1003.04
2017-05-30T18:34:46.854Z,1003.08
2017-05-30T18:37:11.443Z,1003.09
2017-05-30T18:39:12.966Z,1003.09
2017-05-30T18:41:29.099Z,1003.07
2017-05-30T18:43:36.696Z,1003.05
2017-05-30T18:45:38.316Z,1003.09
2017-05-30T18:48:02.887Z,1003.1
2017-05-30T18:50:27.407Z,1003.13
2017-05-30T18:52:37.476Z,1003.15
2017-05-30T18:54:53.607Z,1003.18
2017-05-30T18:57:18.176Z,1003.18
2017-05-30T18:59:34.261Z,1003.17
2017-05-30T19:01:50.300Z,1003.15
2017-05-30T19:04:14.828Z,1003.2
2017-05-30T19:06:30.909Z,1003.21
2017-05-30T19:08:55.478Z,1003.25
2017-05-30T19:11:20.070Z,1003.3
2017-05-30T19:13:44.666Z,1003.26
2017-05-30T19:16:09.260Z,1003.32
2017-05-30T19:18:02.843Z,1003.34
2017-05-30T19:20:28.585Z,1003.42
2017-05-30T19:22:52.803Z,1003.44
2017-05-30T19:25:17.378Z,1003.47
2017-05-30T19:27:41.903Z,1003.47
2017-05-30T19:30:06.444Z,1003.54
2017-05-30T19:32:30.985Z,1003.54
2017-05-30T19:34:55.535Z,1003.61
2017-05-30T19:37:20.108Z,1003.59
2017-05-30T19:39:44.659Z,1003.64
2017-05-30T19:42:00.734Z,1003.71
2017-05-30T19:44:26.275Z,1003.67
2017-05-30T19:46:51.771Z,1003.75
2017-05-30T19:49:02.338Z,1003.78
2017-05-30T19:51:12.926Z,1003.78
2017-05-30T19:53:37.479Z,1003.86
2017-05-30T19:56:01.950Z,1003.93
2017-05-30T19:58:27.462Z,1004.01
2017-05-30T20:00:35.040Z,1004.04
2017-05-30T20:03:01.516Z,1004.04
2017-05-30T20:05:26.008Z,1004.11
2017-05-30T20:07:50.435Z,1004.17
2017-05-30T20:10:06.477Z,1004.19
2017-05-30T20:12:22.505Z,1004.22
2017-05-30T20:14:38.534Z,1004.24
2017-05-30T20:17:04.021Z,1004.32
2017-05-30T20:19:21.044Z,1004.35
2017-05-30T20:23:21.403Z,1004.35
2017-05-30T20:25:45.930Z,1004.37
2017-05-30T20:28:10.421Z,1004.38
2017-05-30T20:30:26.462Z,1004.41
2017-05-30T20:32:27.952Z,1004.43
2017-05-30T20:34:43.952Z,1004.44
2017-05-30T20:36:53.969Z,1004.47
2017-05-30T20:39:18.422Z,1004.43
2017-05-30T20:41:42.891Z,1004.5
2017-05-30T20:44:07.323Z,1004.56
2017-05-30T20:46:31.768Z,1004.62
2017-05-30T20:48:47.743Z,1004.61
2017-05-30T20:51:03.696Z,1004.62
2017-05-30T20:53:28.106Z,1004.68
2017-05-30T20:55:52.511Z,1004.65
2017-05-30T20:58:16.917Z,1004.67
2017-05-30T21:00:41.318Z,1004.66
2017-05-30T21:03:05.757Z,1004.69
2017-05-30T21:05:30.266Z,1004.69
2017-05-30T21:07:54.729Z,1004.72
2017-05-30T21:10:19.248Z,1004.75
2017-05-30T21:12:43.625Z,1004.73
2017-05-30T21:14:45.231Z,1004.77
2017-05-30T21:17:09.657Z,1004.76
2017-05-30T21:19:34.036Z,1004.75
2017-05-30T21:21:58.439Z,1004.71
2017-05-30T21:24:14.417Z,1004.74
2017-05-30T21:26:38.819Z,1004.74
2017-05-30T21:29:03.201Z,1004.83
2017-05-30T21:31:27.593Z,1004.83
2017-05-30T21:33:51.973Z,1004.83
2017-05-30T21:36:16.370Z,1004.81
2017-05-30T21:38:40.768Z,1004.8
2017-05-30T21:41:05.153Z,1004.85
2017-05-30T21:43:29.553Z,1004.91
2017-05-30T21:45:53.934Z,1004.95
2017-05-30T21:48:18.304Z,1004.92
2017-05-30T21:50:42.719Z,1004.9
2017-05-30T21:53:07.092Z,1004.94
2017-05-30T21:55:23.026Z,1004.97
2017-05-30T21:57:47.371Z,1004.99
2017-05-30T22:00:11.757Z,1004.96
2017-05-30T22:02:27.637Z,1005.03
2017-05-30T22:04:51.930Z,1005.06
2017-05-30T22:07:16.324Z,1005.12
2017-05-30T22:09:40.711Z,1005.17
2017-05-30T22:12:05.102Z,1005.22
2017-05-30T22:14:29.486Z,1005.23
2017-05-30T22:16:30.932Z,1005.24
2017-05-30T22:18:55.322Z,1005.24
2017-05-30T22:21:19.704Z,1005.23
2017-05-30T22:23:35.647Z,1005.27
2017-05-30T22:25:59.986Z,1005.29
2017-05-30T22:28:24.275Z,1005.31
2017-05-30T22:30:48.569Z,1005.37
2017-05-30T22:33:12.956Z,1005.37
2017-05-30T22:35:37.337Z,1005.39
2017-05-30T22:38:01.618Z,1005.43
2017-05-30T22:40:17.464Z,1005.44
2017-05-30T22:42:41.814Z,1005.51
2017-05-30T22:45:06.190Z,1005.6
2017-05-30T22:47:30.485Z,1005.61
2017-05-30T22:49:54.766Z,1005.65
2017-05-30T22:52:19.061Z,1005.63
2017-05-30T22:54:43.358Z,1005.73
2017-05-30T22:56:59.225Z,1005.78
2017-05-30T22:59:23.513Z,1005.81
2017-05-30T23:01:47.802Z,1005.84
2017-05-30T23:04:12.081Z,1005.87
2017-05-30T23:06:36.374Z,1005.85
2017-05-30T23:09:00.657Z,1005.94
2017-05-30T23:11:24.931Z,1005.86
2017-05-30T23:13:49.236Z,1005.9
2017-05-30T23:15:50.680Z,1005.95
2017-05-30T23:18:14.970Z,1005.94
2017-05-30T23:20:39.254Z,1005.99
2017-05-30T23:23:03.553Z,1006.07
2017-05-30T23:25:27.837Z,1006.08
2017-05-30T23:27:52.119Z,1006.1
2017-05-30T23:30:16.414Z,1006.11
2017-05-30T23:32:32.262Z,1006.09
2017-05-30T23:34:56.587Z,1006.16
2017-05-30T23:37:12.430Z,1006.15
2017-05-30T23:39:28.256Z,1006.12
2017-05-30T23:41:44.098Z,1006.16
2017-05-30T23:44:08.419Z,1006.19
2017-05-30T23:46:32.712Z,1006.21
2017-05-30T23:48:48.562Z,1006.17
2017-05-30T23:51:04.386Z,1006.33
2017-05-30T23:53:28.687Z,1006.37
2017-05-30T23:55:52.970Z,1006.38
2017-05-30T23:58:17.267Z,1006.44
